sensor_id;sensor_type;location;lat;lon;timestamp;temperature;humidity
16955;DHT22;8594;52.052;8.354;2023-07-28T00:02:07;18.90;99.90
16955;DHT22;8594;52.052;8.354;2023-07-28T00:04:34;19.00;99.90
16955;DHT22;8594;52.052;8.354;2023-07-28T00:07:02;18.90;99.90
16955;DHT22;8594;52.052;8.354;2023-07-28T00:09:29;18.90;99.90
16955;DHT22;8594;52.052;8.354;2023-07-28T00:11:56;18.90;99.90
16955;DHT22;8594;52.052;8.354;2023-07-28T00:14:25;18.90;99.90
16955;DHT22;8594;52.052;8.354;2023-07-28T00:16:52;18.90;99.90
16955;DHT22;8594;52.052;8.354;2023-07-28T00:19:19;19.00;99.90
16955;DHT22;8594;52.052;8.354;2023-07-28T00:21:47;19.00;99.90
16955;DHT22;8594;52.052;8.354;2023-07-28T00:24:14;19.00;99.90
16955;DHT22;8594;52.052;8.354;2023-07-28T00:26:41;19.10;99.90
16955;DHT22;8594;52.052;8.354;2023-07-28T00:29:08;19.00;99.90
16955;DHT22;8594;52.052;8.354;2023-07-28T00:31:36;19.00;99.90
16955;DHT22;8594;52.052;8.354;2023-07-28T00:34:04;18.90;99.90
16955;DHT22;8594;52.052;8.354;2023-07-28T00:36:31;18.90;99.90
16955;DHT22;8594;52.052;8.354;2023-07-28T00:38:58;18.90;99.90
16955;DHT22;8594;52.052;8.354;2023-07-28T00:41:25;18.80;99.90
16955;DHT22;8594;52.052;8.354;2023-07-28T00:43:52;19.00;99.90
16955;DHT22;8594;52.052;8.354;2023-07-28T00:46:19;18.90;99.90
16955;DHT22;8594;52.052;8.354;2023-07-28T00:48:47;19.00;99.90
16955;DHT22;8594;52.052;8.354;2023-07-28T00:51:14;19.00;99.90
16955;DHT22;8594;52.052;8.354;2023-07-28T00:53:42;18.90;99.90
16955;DHT22;8594;52.052;8.354;2023-07-28T00:56:10;18.90;99.90
16955;DHT22;8594;52.052;8.354;2023-07-28T00:58:38;19.00;99.90
16955;DHT22;8594;52.052;8.354;2023-07-28T01:01:05;19.00;99.90
16955;DHT22;8594;52.052;8.354;2023-07-28T01:03:32;19.00;99.90
16955;DHT22;8594;52.052;8.354;2023-07-28T01:06:13;18.90;99.90
16955;DHT22;8594;52.052;8.354;2023-07-28T01:08:52;19.00;99.90
16955;DHT22;8594;52.052;8.354;2023-07-28T01:11:25;19.00;99.90
16955;DHT22;8594;52.052;8.354;2023-07-28T01:13:52;18.90;99.90
16955;DHT22;8594;52.052;8.354;2023-07-28T01:16:19;18.80;99.90
16955;DHT22;8594;52.052;8.354;2023-07-28T01:18:46;19.00;99.90
16955;DHT22;8594;52.052;8.354;2023-07-28T01:21:23;18.90;99.90
16955;DHT22;8594;52.052;8.354;2023-07-28T01:24:01;19.10;99.90
16955;DHT22;8594;52.052;8.354;2023-07-28T01:26:39;18.90;99.90
16955;DHT22;8594;52.052;8.354;2023-07-28T01:29:06;18.80;99.90
16955;DHT22;8594;52.052;8.354;2023-07-28T01:31:34;18.70;99.90
16955;DHT22;8594;52.052;8.354;2023-07-28T01:34:00;18.60;99.90
16955;DHT22;8594;52.052;8.354;2023-07-28T01:36:27;18.80;99.90
16955;DHT22;8594;52.052;8.354;2023-07-28T01:38:54;18.80;99.90
16955;DHT22;8594;52.052;8.354;2023-07-28T01:41:21;18.80;99.90
16955;DHT22;8594;52.052;8.354;2023-07-28T01:43:49;18.80;99.90
16955;DHT22;8594;52.052;8.354;2023-07-28T01:46:16;18.80;99.90
16955;DHT22;8594;52.052;8.354;2023-07-28T01:48:43;18.90;99.90
16955;DHT22;8594;52.052;8.354;2023-07-28T01:51:10;19.10;99.90
16955;DHT22;8594;52.052;8.354;2023-07-28T01:53:37;19.00;99.90
16955;DHT22;8594;52.052;8.354;2023-07-28T01:56:03;18.90;99.90
16955;DHT22;8594;52.052;8.354;2023-07-28T01:58:30;18.80;99.90
16955;DHT22;8594;52.052;8.354;2023-07-28T02:00:58;18.80;99.90
16955;DHT22;8594;52.052;8.354;2023-07-28T02:03:25;18.80;99.90
16955;DHT22;8594;52.052;8.354;2023-07-28T02:05:52;18.60;99.90
16955;DHT22;8594;52.052;8.354;2023-07-28T02:08:19;18.80;99.90
16955;DHT22;8594;52.052;8.354;2023-07-28T02:10:46;18.80;99.90
16955;DHT22;8594;52.052;8.354;2023-07-28T02:13:13;18.80;99.90
16955;DHT22;8594;52.052;8.354;2023-07-28T02:15:40;18.90;99.90
16955;DHT22;8594;52.052;8.354;2023-07-28T02:18:08;18.80;99.90
16955;DHT22;8594;52.052;8.354;2023-07-28T02:20:35;18.80;99.90
16955;DHT22;8594;52.052;8.354;2023-07-28T02:23:03;18.90;99.90
16955;DHT22;8594;52.052;8.354;2023-07-28T02:25:30;19.00;99.90
16955;DHT22;8594;52.052;8.354;2023-07-28T02:27:57;18.90;99.90
16955;DHT22;8594;52.052;8.354;2023-07-28T02:30:24;19.00;99.90
16955;DHT22;8594;52.052;8.354;2023-07-28T02:32:50;19.00;99.90
16955;DHT22;8594;52.052;8.354;2023-07-28T02:35:19;19.00;99.90
16955;DHT22;8594;52.052;8.354;2023-07-28T02:37:46;19.10;99.90
16955;DHT22;8594;52.052;8.354;2023-07-28T02:40:12;19.10;99.90
16955;DHT22;8594;52.052;8.354;2023-07-28T02:42:39;19.00;99.90
16955;DHT22;8594;52.052;8.354;2023-07-28T02:45:07;19.00;99.90
16955;DHT22;8594;52.052;8.354;2023-07-28T02:47:35;19.10;99.90
16955;DHT22;8594;52.052;8.354;2023-07-28T02:50:03;18.90;99.90
16955;DHT22;8594;52.052;8.354;2023-07-28T02:52:31;18.80;99.90
16955;DHT22;8594;52.052;8.354;2023-07-28T02:54:58;18.90;99.90
16955;DHT22;8594;52.052;8.354;2023-07-28T02:57:25;18.90;99.90
16955;DHT22;8594;52.052;8.354;2023-07-28T02:59:52;18.90;99.90
16955;DHT22;8594;52.052;8.354;2023-07-28T03:02:19;18.90;99.90
16955;DHT22;8594;52.052;8.354;2023-07-28T03:04:46;19.00;99.90
16955;DHT22;8594;52.052;8.354;2023-07-28T03:07:13;19.00;99.90
16955;DHT22;8594;52.052;8.354;2023-07-28T03:09:41;18.90;99.90
16955;DHT22;8594;52.052;8.354;2023-07-28T03:12:08;18.90;99.90
16955;DHT22;8594;52.052;8.354;2023-07-28T03:14:35;18.90;99.90
16955;DHT22;8594;52.052;8.354;2023-07-28T03:17:03;18.90;99.90
16955;DHT22;8594;52.052;8.354;2023-07-28T03:19:30;18.80;99.90
16955;DHT22;8594;52.052;8.354;2023-07-28T03:21:57;18.70;99.90
16955;DHT22;8594;52.052;8.354;2023-07-28T03:24:24;18.70;99.90
16955;DHT22;8594;52.052;8.354;2023-07-28T03:26:52;18.70;99.90
16955;DHT22;8594;52.052;8.354;2023-07-28T03:29:19;18.90;99.90
16955;DHT22;8594;52.052;8.354;2023-07-28T03:31:46;19.00;99.90
16955;DHT22;8594;52.052;8.354;2023-07-28T03:34:13;18.90;99.90
16955;DHT22;8594;52.052;8.354;2023-07-28T03:36:40;18.90;99.90
16955;DHT22;8594;52.052;8.354;2023-07-28T03:39:07;18.80;99.90
16955;DHT22;8594;52.052;8.354;2023-07-28T03:41:33;18.80;99.90
16955;DHT22;8594;52.052;8.354;2023-07-28T03:44:02;18.70;99.90
16955;DHT22;8594;52.052;8.354;2023-07-28T03:46:29;18.80;99.90
16955;DHT22;8594;52.052;8.354;2023-07-28T03:48:56;18.80;99.90
16955;DHT22;8594;52.052;8.354;2023-07-28T03:51:23;18.70;99.90
16955;DHT22;8594;52.052;8.354;2023-07-28T03:53:50;18.70;99.90
16955;DHT22;8594;52.052;8.354;2023-07-28T03:56:18;18.70;99.90
16955;DHT22;8594;52.052;8.354;2023-07-28T03:58:44;18.90;99.90
16955;DHT22;8594;52.052;8.354;2023-07-28T04:01:13;18.80;99.90
16955;DHT22;8594;52.052;8.354;2023-07-28T04:03:40;18.90;99.90
16955;DHT22;8594;52.052;8.354;2023-07-28T04:06:11;18.80;99.90
16955;DHT22;8594;52.052;8.354;2023-07-28T04:08:38;18.80;99.90
16955;DHT22;8594;52.052;8.354;2023-07-28T04:11:05;18.80;99.90
16955;DHT22;8594;52.052;8.354;2023-07-28T04:13:33;18.80;99.90
16955;DHT22;8594;52.052;8.354;2023-07-28T04:16:00;18.90;99.90
16955;DHT22;8594;52.052;8.354;2023-07-28T04:18:28;18.80;99.90
16955;DHT22;8594;52.052;8.354;2023-07-28T04:20:57;18.90;99.90
16955;DHT22;8594;52.052;8.354;2023-07-28T04:23:23;18.90;99.90
16955;DHT22;8594;52.052;8.354;2023-07-28T04:25:50;18.90;99.90
16955;DHT22;8594;52.052;8.354;2023-07-28T04:28:17;18.90;99.90
16955;DHT22;8594;52.052;8.354;2023-07-28T04:30:45;18.90;99.90
16955;DHT22;8594;52.052;8.354;2023-07-28T04:33:12;18.90;99.90
16955;DHT22;8594;52.052;8.354;2023-07-28T04:35:40;18.90;99.90
16955;DHT22;8594;52.052;8.354;2023-07-28T04:38:07;18.80;99.90
16955;DHT22;8594;52.052;8.354;2023-07-28T04:40:34;18.80;99.90
16955;DHT22;8594;52.052;8.354;2023-07-28T04:43:01;18.90;99.90
16955;DHT22;8594;52.052;8.354;2023-07-28T04:45:27;18.80;99.90
16955;DHT22;8594;52.052;8.354;2023-07-28T04:47:54;18.90;99.90
16955;DHT22;8594;52.052;8.354;2023-07-28T04:50:21;18.80;99.90
16955;DHT22;8594;52.052;8.354;2023-07-28T04:52:49;18.80;99.90
16955;DHT22;8594;52.052;8.354;2023-07-28T04:55:16;18.80;99.90
16955;DHT22;8594;52.052;8.354;2023-07-28T04:57:43;18.80;99.90
16955;DHT22;8594;52.052;8.354;2023-07-28T05:00:11;18.80;99.90
16955;DHT22;8594;52.052;8.354;2023-07-28T05:02:39;18.80;99.90
16955;DHT22;8594;52.052;8.354;2023-07-28T05:05:06;18.90;99.90
16955;DHT22;8594;52.052;8.354;2023-07-28T05:07:33;18.90;99.90
16955;DHT22;8594;52.052;8.354;2023-07-28T05:10:02;18.80;99.90
16955;DHT22;8594;52.052;8.354;2023-07-28T05:12:29;18.90;99.90
16955;DHT22;8594;52.052;8.354;2023-07-28T05:14:56;18.90;99.90
16955;DHT22;8594;52.052;8.354;2023-07-28T05:17:22;18.80;99.90
16955;DHT22;8594;52.052;8.354;2023-07-28T05:19:49;19.00;99.90
16955;DHT22;8594;52.052;8.354;2023-07-28T05:22:16;19.00;99.90
16955;DHT22;8594;52.052;8.354;2023-07-28T05:24:44;19.00;99.90
16955;DHT22;8594;52.052;8.354;2023-07-28T05:27:12;19.10;99.90
16955;DHT22;8594;52.052;8.354;2023-07-28T05:29:39;19.10;99.90
16955;DHT22;8594;52.052;8.354;2023-07-28T05:32:07;19.10;99.90
16955;DHT22;8594;52.052;8.354;2023-07-28T05:34:34;19.00;99.90
16955;DHT22;8594;52.052;8.354;2023-07-28T05:37:01;19.00;99.90
16955;DHT22;8594;52.052;8.354;2023-07-28T05:39:28;19.00;99.90
16955;DHT22;8594;52.052;8.354;2023-07-28T05:41:55;19.10;99.90
16955;DHT22;8594;52.052;8.354;2023-07-28T05:44:23;19.00;99.90
16955;DHT22;8594;52.052;8.354;2023-07-28T05:46:50;19.00;99.90
16955;DHT22;8594;52.052;8.354;2023-07-28T05:49:17;19.10;99.90
16955;DHT22;8594;52.052;8.354;2023-07-28T05:51:44;19.20;99.90
16955;DHT22;8594;52.052;8.354;2023-07-28T05:54:12;19.20;99.90
16955;DHT22;8594;52.052;8.354;2023-07-28T05:56:40;19.20;99.90
16955;DHT22;8594;52.052;8.354;2023-07-28T05:59:07;19.20;99.90
16955;DHT22;8594;52.052;8.354;2023-07-28T06:01:35;19.10;99.90
16955;DHT22;8594;52.052;8.354;2023-07-28T06:04:02;19.20;99.90
16955;DHT22;8594;52.052;8.354;2023-07-28T06:06:29;19.00;99.90
16955;DHT22;8594;52.052;8.354;2023-07-28T06:08:57;19.10;99.90
16955;DHT22;8594;52.052;8.354;2023-07-28T06:11:24;19.20;99.90
16955;DHT22;8594;52.052;8.354;2023-07-28T06:13:51;19.30;99.90
16955;DHT22;8594;52.052;8.354;2023-07-28T06:16:18;19.30;99.90
16955;DHT22;8594;52.052;8.354;2023-07-28T06:18:46;19.40;99.90
16955;DHT22;8594;52.052;8.354;2023-07-28T06:21:13;19.30;99.90
16955;DHT22;8594;52.052;8.354;2023-07-28T06:23:40;19.30;99.90
16955;DHT22;8594;52.052;8.354;2023-07-28T06:26:07;19.40;99.90
16955;DHT22;8594;52.052;8.354;2023-07-28T06:28:34;19.40;99.90
16955;DHT22;8594;52.052;8.354;2023-07-28T06:31:02;19.50;99.90
16955;DHT22;8594;52.052;8.354;2023-07-28T06:33:29;19.50;99.90
16955;DHT22;8594;52.052;8.354;2023-07-28T06:35:58;19.40;99.90
16955;DHT22;8594;52.052;8.354;2023-07-28T06:38:24;19.50;99.90
16955;DHT22;8594;52.052;8.354;2023-07-28T06:40:52;19.50;99.90
16955;DHT22;8594;52.052;8.354;2023-07-28T06:43:19;19.40;99.90
16955;DHT22;8594;52.052;8.354;2023-07-28T06:45:46;19.50;99.90
16955;DHT22;8594;52.052;8.354;2023-07-28T06:48:13;19.50;99.90
16955;DHT22;8594;52.052;8.354;2023-07-28T06:50:40;19.50;99.90
16955;DHT22;8594;52.052;8.354;2023-07-28T06:53:08;19.50;99.90
16955;DHT22;8594;52.052;8.354;2023-07-28T06:55:35;19.50;99.90
16955;DHT22;8594;52.052;8.354;2023-07-28T06:58:04;19.60;99.90
16955;DHT22;8594;52.052;8.354;2023-07-28T07:00:31;19.60;99.90
16955;DHT22;8594;52.052;8.354;2023-07-28T07:02:59;19.60;99.90
16955;DHT22;8594;52.052;8.354;2023-07-28T07:05:26;19.60;99.90
16955;DHT22;8594;52.052;8.354;2023-07-28T07:07:52;19.40;99.90
16955;DHT22;8594;52.052;8.354;2023-07-28T07:10:21;19.50;99.90
16955;DHT22;8594;52.052;8.354;2023-07-28T07:12:48;19.60;99.90
16955;DHT22;8594;52.052;8.354;2023-07-28T07:15:15;19.60;99.90
16955;DHT22;8594;52.052;8.354;2023-07-28T07:17:41;19.60;99.90
16955;DHT22;8594;52.052;8.354;2023-07-28T07:20:09;19.60;99.90
16955;DHT22;8594;52.052;8.354;2023-07-28T07:22:37;19.60;99.90
16955;DHT22;8594;52.052;8.354;2023-07-28T07:25:04;19.60;99.90
16955;DHT22;8594;52.052;8.354;2023-07-28T07:27:33;19.70;99.90
16955;DHT22;8594;52.052;8.354;2023-07-28T07:30:00;19.70;99.90
16955;DHT22;8594;52.052;8.354;2023-07-28T07:32:28;19.80;99.90
16955;DHT22;8594;52.052;8.354;2023-07-28T07:34:55;19.80;99.90
16955;DHT22;8594;52.052;8.354;2023-07-28T07:37:22;19.80;99.90
16955;DHT22;8594;52.052;8.354;2023-07-28T07:39:49;19.70;99.90
16955;DHT22;8594;52.052;8.354;2023-07-28T07:42:15;19.80;99.90
16955;DHT22;8594;52.052;8.354;2023-07-28T07:44:44;20.00;99.90
16955;DHT22;8594;52.052;8.354;2023-07-28T07:47:12;19.90;99.90
16955;DHT22;8594;52.052;8.354;2023-07-28T07:49:39;20.00;99.90
16955;DHT22;8594;52.052;8.354;2023-07-28T07:52:07;20.00;99.90
16955;DHT22;8594;52.052;8.354;2023-07-28T07:54:35;20.10;99.90
16955;DHT22;8594;52.052;8.354;2023-07-28T07:57:02;20.30;99.90
16955;DHT22;8594;52.052;8.354;2023-07-28T07:59:29;20.30;99.90
16955;DHT22;8594;52.052;8.354;2023-07-28T08:01:59;20.30;99.90
16955;DHT22;8594;52.052;8.354;2023-07-28T08:04:28;20.50;99.90
16955;DHT22;8594;52.052;8.354;2023-07-28T08:06:56;20.60;99.90
16955;DHT22;8594;52.052;8.354;2023-07-28T08:09:23;20.50;99.90
16955;DHT22;8594;52.052;8.354;2023-07-28T08:11:50;20.60;99.90
16955;DHT22;8594;52.052;8.354;2023-07-28T08:14:18;20.80;99.90
16955;DHT22;8594;52.052;8.354;2023-07-28T08:16:45;20.90;99.90
16955;DHT22;8594;52.052;8.354;2023-07-28T08:19:13;21.10;99.90
16955;DHT22;8594;52.052;8.354;2023-07-28T08:21:40;21.10;99.90
16955;DHT22;8594;52.052;8.354;2023-07-28T08:24:07;21.00;99.90
16955;DHT22;8594;52.052;8.354;2023-07-28T08:26:34;21.00;99.90
16955;DHT22;8594;52.052;8.354;2023-07-28T08:29:01;21.20;99.90
16955;DHT22;8594;52.052;8.354;2023-07-28T08:31:28;21.20;99.90
16955;DHT22;8594;52.052;8.354;2023-07-28T08:33:55;21.20;99.90
16955;DHT22;8594;52.052;8.354;2023-07-28T08:36:23;21.20;99.90
16955;DHT22;8594;52.052;8.354;2023-07-28T08:38:50;21.20;99.90
16955;DHT22;8594;52.052;8.354;2023-07-28T08:41:17;21.00;99.90
16955;DHT22;8594;52.052;8.354;2023-07-28T08:43:44;21.00;99.90
16955;DHT22;8594;52.052;8.354;2023-07-28T08:46:11;21.00;99.90
16955;DHT22;8594;52.052;8.354;2023-07-28T08:48:39;21.00;99.90
16955;DHT22;8594;52.052;8.354;2023-07-28T08:51:05;21.00;99.90
16955;DHT22;8594;52.052;8.354;2023-07-28T08:53:35;21.00;99.90
16955;DHT22;8594;52.052;8.354;2023-07-28T08:56:02;20.80;99.90
16955;DHT22;8594;52.052;8.354;2023-07-28T08:58:30;20.80;99.90
16955;DHT22;8594;52.052;8.354;2023-07-28T09:00:56;20.90;99.90
16955;DHT22;8594;52.052;8.354;2023-07-28T09:03:26;21.40;99.90
16955;DHT22;8594;52.052;8.354;2023-07-28T09:05:59;21.60;99.90
16955;DHT22;8594;52.052;8.354;2023-07-28T09:08:28;21.70;99.90
16955;DHT22;8594;52.052;8.354;2023-07-28T09:11:02;21.80;99.90
16955;DHT22;8594;52.052;8.354;2023-07-28T09:13:35;21.80;99.90
16955;DHT22;8594;52.052;8.354;2023-07-28T09:16:03;21.70;99.90
16955;DHT22;8594;52.052;8.354;2023-07-28T09:18:30;21.60;99.90
16955;DHT22;8594;52.052;8.354;2023-07-28T09:20:57;21.60;99.90
16955;DHT22;8594;52.052;8.354;2023-07-28T09:23:28;21.80;99.90
16955;DHT22;8594;52.052;8.354;2023-07-28T09:26:00;21.90;99.90
16955;DHT22;8594;52.052;8.354;2023-07-28T09:28:37;22.00;99.90
16955;DHT22;8594;52.052;8.354;2023-07-28T09:31:04;22.00;99.90
16955;DHT22;8594;52.052;8.354;2023-07-28T09:33:32;21.90;99.90
16955;DHT22;8594;52.052;8.354;2023-07-28T09:36:07;22.10;99.90
16955;DHT22;8594;52.052;8.354;2023-07-28T09:38:36;22.10;99.90
16955;DHT22;8594;52.052;8.354;2023-07-28T09:41:09;22.20;99.90
16955;DHT22;8594;52.052;8.354;2023-07-28T09:43:37;22.10;99.90
16955;DHT22;8594;52.052;8.354;2023-07-28T09:46:07;22.20;99.90
16955;DHT22;8594;52.052;8.354;2023-07-28T09:48:37;22.10;99.90
16955;DHT22;8594;52.052;8.354;2023-07-28T09:51:08;22.00;99.90
16955;DHT22;8594;52.052;8.354;2023-07-28T09:53:46;22.20;99.90
16955;DHT22;8594;52.052;8.354;2023-07-28T09:56:19;22.20;99.90
16955;DHT22;8594;52.052;8.354;2023-07-28T09:58:51;22.20;99.90
16955;DHT22;8594;52.052;8.354;2023-07-28T10:01:19;22.10;99.90
16955;DHT22;8594;52.052;8.354;2023-07-28T10:03:47;22.20;99.90
16955;DHT22;8594;52.052;8.354;2023-07-28T10:06:15;22.10;99.90
16955;DHT22;8594;52.052;8.354;2023-07-28T10:08:43;22.10;99.90
16955;DHT22;8594;52.052;8.354;2023-07-28T10:11:12;22.10;99.90
16955;DHT22;8594;52.052;8.354;2023-07-28T10:13:43;22.20;99.90
16955;DHT22;8594;52.052;8.354;2023-07-28T10:16:12;22.30;99.90
16955;DHT22;8594;52.052;8.354;2023-07-28T10:18:40;22.20;99.90
16955;DHT22;8594;52.052;8.354;2023-07-28T10:21:09;22.10;99.90
16955;DHT22;8594;52.052;8.354;2023-07-28T10:23:41;21.90;99.90
16955;DHT22;8594;52.052;8.354;2023-07-28T10:26:10;21.70;99.90
16955;DHT22;8594;52.052;8.354;2023-07-28T10:28:38;21.60;99.90
16955;DHT22;8594;52.052;8.354;2023-07-28T10:31:09;21.70;99.90
16955;DHT22;8594;52.052;8.354;2023-07-28T10:33:38;21.80;99.90
16955;DHT22;8594;52.052;8.354;2023-07-28T10:36:12;21.70;99.90
16955;DHT22;8594;52.052;8.354;2023-07-28T10:38:40;21.30;99.90
16955;DHT22;8594;52.052;8.354;2023-07-28T10:41:14;21.40;99.90
16955;DHT22;8594;52.052;8.354;2023-07-28T10:43:42;21.50;99.90
16955;DHT22;8594;52.052;8.354;2023-07-28T10:46:14;21.60;99.90
16955;DHT22;8594;52.052;8.354;2023-07-28T10:48:44;21.70;99.90
16955;DHT22;8594;52.052;8.354;2023-07-28T10:51:20;21.80;99.90
16955;DHT22;8594;52.052;8.354;2023-07-28T10:53:50;21.80;99.90
16955;DHT22;8594;52.052;8.354;2023-07-28T10:56:17;21.80;99.90
16955;DHT22;8594;52.052;8.354;2023-07-28T10:58:45;21.80;99.90
16955;DHT22;8594;52.052;8.354;2023-07-28T11:01:14;21.80;99.90
16955;DHT22;8594;52.052;8.354;2023-07-28T11:03:41;21.80;99.90
16955;DHT22;8594;52.052;8.354;2023-07-28T11:06:09;21.80;99.90
16955;DHT22;8594;52.052;8.354;2023-07-28T11:08:36;21.90;99.90
16955;DHT22;8594;52.052;8.354;2023-07-28T11:11:05;22.10;99.90
16955;DHT22;8594;52.052;8.354;2023-07-28T11:13:32;22.20;99.90
16955;DHT22;8594;52.052;8.354;2023-07-28T11:16:00;22.40;99.90
16955;DHT22;8594;52.052;8.354;2023-07-28T11:18:28;22.60;99.90
16955;DHT22;8594;52.052;8.354;2023-07-28T11:20:55;22.60;99.90
16955;DHT22;8594;52.052;8.354;2023-07-28T11:23:22;22.70;99.90
16955;DHT22;8594;52.052;8.354;2023-07-28T11:25:50;22.70;99.90
16955;DHT22;8594;52.052;8.354;2023-07-28T11:28:19;22.80;99.90
16955;DHT22;8594;52.052;8.354;2023-07-28T11:30:46;22.80;99.90
16955;DHT22;8594;52.052;8.354;2023-07-28T11:33:13;22.80;99.90
16955;DHT22;8594;52.052;8.354;2023-07-28T11:35:44;22.80;99.90
16955;DHT22;8594;52.052;8.354;2023-07-28T11:38:12;22.80;99.90
16955;DHT22;8594;52.052;8.354;2023-07-28T11:40:41;22.90;99.90
16955;DHT22;8594;52.052;8.354;2023-07-28T11:43:08;22.80;99.90
16955;DHT22;8594;52.052;8.354;2023-07-28T11:45:35;22.80;99.90
16955;DHT22;8594;52.052;8.354;2023-07-28T11:48:04;22.90;99.90
16955;DHT22;8594;52.052;8.354;2023-07-28T11:50:35;23.00;99.90
16955;DHT22;8594;52.052;8.354;2023-07-28T11:53:06;23.00;99.90
16955;DHT22;8594;52.052;8.354;2023-07-28T11:55:35;23.00;99.90
16955;DHT22;8594;52.052;8.354;2023-07-28T11:58:03;23.20;99.90
16955;DHT22;8594;52.052;8.354;2023-07-28T12:00:32;23.20;99.90
16955;DHT22;8594;52.052;8.354;2023-07-28T12:03:02;23.30;99.90
16955;DHT22;8594;52.052;8.354;2023-07-28T12:05:31;23.50;99.90
16955;DHT22;8594;52.052;8.354;2023-07-28T12:07:58;23.20;99.90
16955;DHT22;8594;52.052;8.354;2023-07-28T12:10:27;23.30;99.90
16955;DHT22;8594;52.052;8.354;2023-07-28T12:12:54;23.20;99.90
16955;DHT22;8594;52.052;8.354;2023-07-28T12:15:23;23.10;99.90
16955;DHT22;8594;52.052;8.354;2023-07-28T12:18:13;23.20;99.90
16955;DHT22;8594;52.052;8.354;2023-07-28T12:20:42;23.30;99.90
16955;DHT22;8594;52.052;8.354;2023-07-28T12:23:13;23.50;99.90
16955;DHT22;8594;52.052;8.354;2023-07-28T12:25:42;23.60;99.90
16955;DHT22;8594;52.052;8.354;2023-07-28T12:28:11;23.60;99.90
16955;DHT22;8594;52.052;8.354;2023-07-28T12:30:38;23.70;99.90
16955;DHT22;8594;52.052;8.354;2023-07-28T12:33:06;24.00;99.90
16955;DHT22;8594;52.052;8.354;2023-07-28T12:35:34;24.30;99.90
16955;DHT22;8594;52.052;8.354;2023-07-28T12:38:02;24.40;99.90
16955;DHT22;8594;52.052;8.354;2023-07-28T12:40:31;24.50;99.90
16955;DHT22;8594;52.052;8.354;2023-07-28T12:43:01;24.80;99.90
16955;DHT22;8594;52.052;8.354;2023-07-28T12:45:30;24.80;99.90
16955;DHT22;8594;52.052;8.354;2023-07-28T12:47:57;24.90;99.90
16955;DHT22;8594;52.052;8.354;2023-07-28T12:50:25;25.00;99.90
16955;DHT22;8594;52.052;8.354;2023-07-28T12:52:51;25.10;99.90
16955;DHT22;8594;52.052;8.354;2023-07-28T12:55:18;25.10;99.90
16955;DHT22;8594;52.052;8.354;2023-07-28T12:57:46;25.00;99.90
16955;DHT22;8594;52.052;8.354;2023-07-28T13:00:16;25.10;99.90
16955;DHT22;8594;52.052;8.354;2023-07-28T13:02:44;25.20;99.90
16955;DHT22;8594;52.052;8.354;2023-07-28T13:05:13;25.40;99.90
16955;DHT22;8594;52.052;8.354;2023-07-28T13:07:42;25.20;99.90
16955;DHT22;8594;52.052;8.354;2023-07-28T13:10:10;25.40;99.90
16955;DHT22;8594;52.052;8.354;2023-07-28T13:12:38;25.50;99.90
16955;DHT22;8594;52.052;8.354;2023-07-28T13:15:06;25.60;99.90
16955;DHT22;8594;52.052;8.354;2023-07-28T13:17:35;25.40;99.90
16955;DHT22;8594;52.052;8.354;2023-07-28T13:20:03;25.50;99.90
16955;DHT22;8594;52.052;8.354;2023-07-28T13:22:32;25.60;99.90
16955;DHT22;8594;52.052;8.354;2023-07-28T13:24:59;25.70;99.90
16955;DHT22;8594;52.052;8.354;2023-07-28T13:27:26;25.60;99.90
16955;DHT22;8594;52.052;8.354;2023-07-28T13:29:53;25.60;99.90
16955;DHT22;8594;52.052;8.354;2023-07-28T13:32:23;25.50;99.90
16955;DHT22;8594;52.052;8.354;2023-07-28T13:34:53;25.50;99.90
16955;DHT22;8594;52.052;8.354;2023-07-28T13:37:20;25.50;99.90
16955;DHT22;8594;52.052;8.354;2023-07-28T13:39:47;25.70;99.90
16955;DHT22;8594;52.052;8.354;2023-07-28T13:42:14;25.50;99.90
16955;DHT22;8594;52.052;8.354;2023-07-28T13:44:41;25.60;99.90
16955;DHT22;8594;52.052;8.354;2023-07-28T13:47:08;25.80;99.90
16955;DHT22;8594;52.052;8.354;2023-07-28T13:49:35;25.70;99.90
16955;DHT22;8594;52.052;8.354;2023-07-28T13:52:05;25.70;99.90
16955;DHT22;8594;52.052;8.354;2023-07-28T13:54:32;25.90;99.90
16955;DHT22;8594;52.052;8.354;2023-07-28T13:56:59;25.90;99.90
16955;DHT22;8594;52.052;8.354;2023-07-28T13:59:26;26.00;99.90
16955;DHT22;8594;52.052;8.354;2023-07-28T14:01:53;26.30;99.90
16955;DHT22;8594;52.052;8.354;2023-07-28T14:04:21;26.20;99.90
16955;DHT22;8594;52.052;8.354;2023-07-28T14:06:47;26.20;99.90
16955;DHT22;8594;52.052;8.354;2023-07-28T14:09:16;26.30;99.90
16955;DHT22;8594;52.052;8.354;2023-07-28T14:11:42;26.20;99.90
16955;DHT22;8594;52.052;8.354;2023-07-28T14:14:09;26.00;99.90
16955;DHT22;8594;52.052;8.354;2023-07-28T14:16:36;25.80;99.90
16955;DHT22;8594;52.052;8.354;2023-07-28T14:19:03;25.90;99.90
16955;DHT22;8594;52.052;8.354;2023-07-28T14:21:30;25.90;99.90
16955;DHT22;8594;52.052;8.354;2023-07-28T14:23:58;26.00;99.90
16955;DHT22;8594;52.052;8.354;2023-07-28T14:26:26;26.10;99.90
16955;DHT22;8594;52.052;8.354;2023-07-28T14:28:53;26.10;99.90
16955;DHT22;8594;52.052;8.354;2023-07-28T14:31:20;26.30;99.90
16955;DHT22;8594;52.052;8.354;2023-07-28T14:33:47;26.40;99.90
16955;DHT22;8594;52.052;8.354;2023-07-28T14:36:14;26.30;99.90
16955;DHT22;8594;52.052;8.354;2023-07-28T14:38:40;26.20;99.90
16955;DHT22;8594;52.052;8.354;2023-07-28T14:41:07;26.40;99.90
16955;DHT22;8594;52.052;8.354;2023-07-28T14:43:36;26.40;99.90
16955;DHT22;8594;52.052;8.354;2023-07-28T14:46:02;26.30;99.90
16955;DHT22;8594;52.052;8.354;2023-07-28T14:48:30;26.20;99.90
16955;DHT22;8594;52.052;8.354;2023-07-28T14:50:56;26.20;99.90
16955;DHT22;8594;52.052;8.354;2023-07-28T14:53:34;26.40;99.90
16955;DHT22;8594;52.052;8.354;2023-07-28T14:56:03;26.40;99.90
16955;DHT22;8594;52.052;8.354;2023-07-28T14:58:31;26.30;99.90
16955;DHT22;8594;52.052;8.354;2023-07-28T15:01:00;26.40;99.90
16955;DHT22;8594;52.052;8.354;2023-07-28T15:03:30;26.50;99.90
16955;DHT22;8594;52.052;8.354;2023-07-28T15:05:58;26.50;99.90
16955;DHT22;8594;52.052;8.354;2023-07-28T15:08:25;26.40;99.90
16955;DHT22;8594;52.052;8.354;2023-07-28T15:10:52;26.40;99.90
16955;DHT22;8594;52.052;8.354;2023-07-28T15:13:20;26.50;99.90
16955;DHT22;8594;52.052;8.354;2023-07-28T15:15:49;26.50;99.90
16955;DHT22;8594;52.052;8.354;2023-07-28T15:18:17;26.40;99.90
16955;DHT22;8594;52.052;8.354;2023-07-28T15:20:44;26.30;99.90
16955;DHT22;8594;52.052;8.354;2023-07-28T15:23:11;26.30;99.90
16955;DHT22;8594;52.052;8.354;2023-07-28T15:25:38;26.40;99.90
16955;DHT22;8594;52.052;8.354;2023-07-28T15:28:08;26.20;99.90
16955;DHT22;8594;52.052;8.354;2023-07-28T15:30:36;26.30;99.90
16955;DHT22;8594;52.052;8.354;2023-07-28T15:33:03;26.30;99.90
16955;DHT22;8594;52.052;8.354;2023-07-28T15:35:31;26.30;99.90
16955;DHT22;8594;52.052;8.354;2023-07-28T15:37:59;26.30;99.90
16955;DHT22;8594;52.052;8.354;2023-07-28T15:40:27;26.40;99.90
16955;DHT22;8594;52.052;8.354;2023-07-28T15:42:54;26.40;99.90
16955;DHT22;8594;52.052;8.354;2023-07-28T15:45:20;26.50;99.90
16955;DHT22;8594;52.052;8.354;2023-07-28T15:47:47;26.60;99.90
16955;DHT22;8594;52.052;8.354;2023-07-28T15:50:14;26.60;99.90